Time;durP1;ratioP1;P1;durP2;ratioP2;P2;SDS_P1;SDS_P2;PMS_P1;PMS_P2;Temp;Humidity;BMP_temperature;BMP_pressure;BME280_temperature;BME280_humidity;BME280_pressure;Samples;Min_cycle;Max_cycle;Signal;HPM_P1;HPM_P2
2022/06/05 00:03:32;;;;;;;6.78;2.53;;;20.80;99.90;;;;;;20857732;28;20085;-79
2022/06/05 00:13:43;;;;;;;5.68;2.92;;;20.80;99.90;;;;;;20850497;28;20053;-78
2022/06/05 00:23:44;;;;;;;5.65;3.08;;;20.70;99.90;;;;;;20849464;28;20030;-79
2022/06/05 00:33:44;;;;;;;7.28;3.15;;;20.70;99.90;;;;;;20848767;28;20058;-78
2022/06/05 00:43:47;;;;;;;7.20;3.23;;;20.60;99.90;;;;;;20857102;28;20037;-79
2022/06/05 00:53:50;;;;;;;6.88;3.20;;;20.50;99.90;;;;;;20853992;28;20041;-77
2022/06/05 01:03:51;;;;;;;3.95;2.78;;;20.30;99.90;;;;;;20851797;28;20072;-78
2022/06/05 01:13:55;;;;;;;;;;;20.20;99.90;;;;;;20852244;28;20029;-79
2022/06/05 01:24:35;;;;;;;4.22;3.30;;;20.30;99.90;;;;;;20852004;28;19909;-78
2022/06/05 01:34:48;;;;;;;5.15;3.50;;;20.30;99.90;;;;;;20808018;28;20713;-78
2022/06/05 01:44:51;;;;;;;6.15;3.67;;;20.20;99.90;;;;;;20819270;28;20061;-79
2022/06/05 01:55:12;;;;;;;6.25;3.55;;;20.10;99.90;;;;;;20837495;28;20029;-79
2022/06/05 02:05:20;;;;;;;7.75;4.60;;;19.80;99.90;;;;;;20846401;28;20033;-79
2022/06/05 02:15:22;;;;;;;7.88;4.05;;;19.70;99.90;;;;;;20827409;28;20052;-79
2022/06/05 02:25:25;;;;;;;5.40;4.77;;;19.60;99.90;;;;;;20866894;28;20432;-75
2022/06/05 02:35:41;;;;;;;4.10;3.65;;;19.50;99.90;;;;;;20876258;28;20038;-77
2022/06/05 02:45:51;;;;;;;6.63;3.45;;;19.40;99.90;;;;;;20923367;28;20067;-78
2022/06/05 02:55:52;;;;;;;8.00;3.30;;;19.20;99.90;;;;;;20948150;28;20108;-79
2022/06/05 03:05:53;;;;;;;7.23;3.93;;;19.00;99.90;;;;;;20947816;28;20040;-79
2022/06/05 03:15:54;;;;;;;6.88;3.90;;;19.20;99.90;;;;;;20948772;28;20037;-78
2022/06/05 03:25:55;;;;;;;6.20;3.70;;;20.40;99.90;;;;;;20926931;28;20045;-79
2022/06/05 03:35:56;;;;;;;16.90;10.03;;;20.40;99.90;;;;;;20946183;28;20040;-78
2022/06/05 03:46:09;;;;;;;9.90;1.60;;;19.30;99.90;;;;;;20910434;28;20060;-76
2022/06/05 03:56:15;;;;;;;10.75;6.15;;;18.50;99.90;;;;;;20837393;28;20097;-78
2022/06/05 04:06:20;;;;;;;14.38;7.63;;;18.70;99.90;;;;;;20817520;28;20496;-78
2022/06/05 04:16:24;;;;;;;15.15;10.70;;;18.30;99.90;;;;;;20852669;28;20108;-78
2022/06/05 04:26:34;;;;;;;19.48;14.25;;;18.20;99.90;;;;;;20834813;28;20105;-78
2022/06/05 04:36:34;;;;;;;20.95;15.00;;;18.00;99.90;;;;;;20835818;28;20048;-79
2022/06/05 04:46:35;;;;;;;30.20;17.83;;;18.00;99.90;;;;;;20852471;28;20056;-78
2022/06/05 04:56:36;;;;;;;33.40;19.20;;;18.00;99.90;;;;;;20850770;28;20030;-78
2022/06/05 05:06:42;;;;;;;27.13;19.33;;;17.90;99.90;;;;;;20850540;28;20442;-79
2022/06/05 05:16:43;;;;;;;29.85;20.52;;;17.90;99.90;;;;;;20831734;28;20074;-78
2022/06/05 05:26:45;;;;;;;35.57;21.73;;;18.00;99.90;;;;;;20810189;28;20128;-77
2022/06/05 05:36:45;;;;;;;33.38;23.90;;;17.90;99.90;;;;;;20826870;28;20428;-77
2022/06/05 05:46:47;;;;;;;36.80;24.13;;;17.90;99.90;;;;;;20827871;28;20037;-77
2022/06/05 05:56:48;;;;;;;;;;;17.90;99.90;;;;;;20826553;28;20045;-77
2022/06/05 06:06:49;;;;;;;31.77;23.17;;;17.80;99.90;;;;;;20826810;28;20327;-77
2022/06/05 06:16:50;;;;;;;32.88;22.02;;;17.90;99.90;;;;;;20829051;28;20816;-77
2022/06/05 06:26:51;;;;;;;28.90;20.63;;;18.30;99.90;;;;;;20828675;28;20108;-77
2022/06/05 06:36:51;;;;;;;25.40;18.90;;;18.90;99.90;;;;;;20825061;28;20056;-77
2022/06/05 06:46:52;;;;;;;25.93;18.30;;;19.20;99.90;;;;;;20823707;28;20443;-77
2022/06/05 06:56:53;;;;;;;30.33;17.43;;;19.70;99.90;;;;;;20822911;28;20484;-76
2022/06/05 07:06:54;;;;;;;23.63;18.60;;;19.10;99.90;;;;;;20829856;28;20096;-77
2022/06/05 07:16:55;;;;;;;18.93;15.80;;;19.10;99.90;;;;;;20836489;28;20032;-77
2022/06/05 07:26:56;;;;;;;23.75;15.75;;;19.60;99.90;;;;;;20835178;28;20037;-76
2022/06/05 07:36:58;;;;;;;21.47;14.50;;;20.40;99.90;;;;;;20836142;28;20400;-77
2022/06/05 07:47:06;;;;;;;20.40;14.85;;;20.70;99.90;;;;;;20834242;28;20033;-77
2022/06/05 07:57:10;;;;;;;15.85;13.00;;;20.70;99.90;;;;;;20833446;28;20041;-76
2022/06/05 08:07:13;;;;;;;15.63;12.68;;;21.00;99.90;;;;;;20831970;28;20025;-76
2022/06/05 08:17:21;;;;;;;17.75;12.00;;;21.50;99.90;;;;;;20834164;28;20411;-75
2022/06/05 08:27:25;;;;;;;18.65;12.35;;;20.50;99.90;;;;;;20818618;28;20057;-75
2022/06/05 08:48:09;;;;;;;22.95;15.13;;;19.70;99.90;;;;;;20919102;28;20043;-75
2022/06/05 08:58:17;;;;;;;24.90;16.90;;;19.30;99.90;;;;;;20986015;28;20080;-75
2022/06/05 09:08:22;;;;;;;18.02;12.70;;;19.20;99.90;;;;;;20934328;28;20047;-74
2022/06/05 09:18:25;;;;;;;21.48;17.20;;;19.20;99.90;;;;;;20910370;28;20089;-76
2022/06/05 09:29:04;;;;;;;21.52;13.43;;;20.30;99.90;;;;;;20892188;28;20032;-75
2022/06/05 09:39:29;;;;;;;15.32;11.85;;;20.90;99.90;;;;;;20920644;28;20383;-75
2022/06/05 09:49:45;;;;;;;18.92;12.18;;;20.70;99.90;;;;;;20902602;28;20037;-75
2022/06/05 09:59:49;;;;;;;15.48;11.50;;;20.20;99.90;;;;;;20969092;28;20095;-76
2022/06/05 10:09:50;;;;;;;12.70;9.75;;;20.10;99.90;;;;;;20968494;28;20032;-76
2022/06/05 10:20:12;;;;;;;12.57;9.50;;;20.40;99.90;;;;;;20897167;28;20025;-76
2022/06/05 10:30:17;;;;;;;24.13;14.40;;;20.40;99.90;;;;;;20867136;28;20032;-75
2022/06/05 10:40:26;;;;;;;14.25;8.32;;;20.40;99.90;;;;;;20897488;28;20407;-73
2022/06/05 10:51:24;;;;;;;13.63;9.93;;;20.20;99.90;;;;;;20895625;28;20031;-76
2022/06/05 11:01:47;;;;;;;17.15;9.13;;;19.30;99.90;;;;;;20633409;28;20479;-76
2022/06/05 11:22:26;;;;;;;8.70;6.10;;;19.70;99.90;;;;;;20564328;28;20050;-75
2022/06/05 11:32:53;;;;;;;8.70;4.55;;;19.90;99.90;;;;;;20827709;28;20037;-75
2022/06/05 11:43:08;;;;;;;7.47;4.93;;;20.30;99.90;;;;;;20877846;28;20037;-76
2022/06/05 11:53:21;;;;;;;6.20;3.42;;;20.40;99.90;;;;;;20876137;28;20040;-74
2022/06/05 12:03:39;;;;;;;15.43;3.13;;;20.70;99.90;;;;;;20902974;28;20041;-75
2022/06/05 12:14:14;;;;;;;8.02;3.47;;;21.40;99.90;;;;;;20875039;28;20040;-74
2022/06/05 12:24:20;;;;;;;5.63;3.05;;;21.00;99.90;;;;;;20898136;28;20552;-74
2022/06/05 12:34:29;;;;;;;5.10;3.70;;;21.30;99.90;;;;;;20896017;28;20517;-75
2022/06/05 12:44:41;;;;;;;8.55;3.75;;;22.40;99.90;;;;;;20894914;28;20036;-74
2022/06/05 12:54:57;;;;;;;9.35;4.55;;;21.70;99.90;;;;;;20895140;28;20029;-74
2022/06/05 13:05:52;;;;;;;8.80;4.47;;;21.40;99.90;;;;;;20893816;28;20056;-75
2022/06/05 13:15:59;;;;;;;6.68;3.55;;;22.10;99.90;;;;;;20794302;28;20063;-75
2022/06/05 13:26:22;;;;;;;9.85;3.55;;;22.70;99.90;;;;;;20891562;28;20033;-75
2022/06/05 13:36:48;;;;;;;6.13;2.97;;;23.10;99.90;;;;;;20880775;28;20037;-75
2022/06/05 13:47:03;;;;;;;7.40;2.55;;;22.70;99.90;;;;;;20899226;28;20055;-75
2022/06/05 13:57:20;;;;;;;21.17;8.25;;;23.30;99.90;;;;;;20903735;28;20028;-75
2022/06/05 14:07:21;;;;;;;6.65;3.33;;;23.90;99.90;;;;;;20949034;28;20044;-75
2022/06/05 14:17:33;;;;;;;5.72;2.38;;;23.10;99.90;;;;;;20978367;28;20109;-74
2022/06/05 14:27:35;;;;;;;7.28;2.83;;;22.40;99.90;;;;;;20905698;28;20036;-74
2022/06/05 14:37:40;;;;;;;6.30;3.10;;;21.70;99.90;;;;;;20925834;22;20049;-76
2022/06/05 14:47:52;;;;;;;6.28;2.15;;;21.30;99.90;;;;;;20888365;28;20029;-75
2022/06/05 14:58:16;;;;;;;3.55;1.60;;;22.00;99.90;;;;;;20905796;28;20032;-76
2022/06/05 15:08:31;;;;;;;3.13;1.30;;;23.40;99.90;;;;;;20905194;28;20086;-76
2022/06/05 15:18:34;;;;;;;5.88;1.20;;;22.70;99.90;;;;;;20904782;28;20033;-75
2022/06/05 15:29:02;;;;;;;5.22;1.20;;;21.90;99.90;;;;;;20894806;28;20121;-76
2022/06/05 15:39:19;;;;;;;4.07;1.10;;;21.20;99.90;;;;;;20917610;28;20036;-75
2022/06/05 15:50:10;;;;;;;8.85;1.70;;;20.60;99.90;;;;;;20914998;28;20036;-75
2022/06/05 16:00:16;;;;;;;3.05;1.00;;;22.00;99.90;;;;;;20917104;28;20063;-76
2022/06/05 16:10:23;;;;;;;2.25;1.10;;;22.80;99.90;;;;;;20916560;28;20052;-75
2022/06/05 16:20:48;;;;;;;4.45;1.33;;;22.60;99.90;;;;;;20915679;28;20025;-79
2022/06/05 16:30:49;;;;;;;3.90;1.13;;;22.00;99.90;;;;;;20915075;28;20033;-77
2022/06/05 16:41:05;;;;;;;1.98;1.00;;;21.80;99.90;;;;;;20895147;28;20570;-76
2022/06/05 16:51:11;;;;;;;3.83;1.60;;;21.20;99.90;;;;;;20913350;28;20029;-76
2022/06/05 17:01:12;;;;;;;5.97;1.55;;;20.70;99.90;;;;;;20912474;28;20115;-76
2022/06/05 17:11:37;;;;;;;3.27;1.50;;;20.90;99.90;;;;;;20912315;28;20075;-76
2022/06/05 17:21:49;;;;;;;6.60;1.60;;;21.00;99.90;;;;;;20869941;28;20040;-76
2022/06/05 17:32:21;;;;;;;2.85;1.60;;;20.30;99.90;;;;;;20891622;28;20068;-76
2022/06/05 17:42:59;;;;;;;2.43;1.53;;;19.80;99.90;;;;;;20929393;28;20048;-76
2022/06/05 17:53:04;;;;;;;5.05;1.60;;;19.60;99.90;;;;;;20840027;28;20059;-76
2022/06/05 18:03:13;;;;;;;2.65;1.77;;;19.70;99.90;;;;;;20902008;28;20033;-75
2022/06/05 18:13:20;;;;;;;3.95;1.75;;;20.40;99.90;;;;;;20908388;28;20025;-76
2022/06/05 18:23:24;;;;;;;6.00;2.13;;;19.30;99.90;;;;;;20904047;28;20028;-77
2022/06/05 18:33:45;;;;;;;4.80;2.13;;;18.80;99.90;;;;;;20911292;28;20032;-77
2022/06/05 18:43:46;;;;;;;5.03;2.22;;;18.60;99.90;;;;;;20909207;28;20060;-76
2022/06/05 18:53:52;;;;;;;3.93;2.60;;;18.50;99.90;;;;;;20909280;28;20025;-77
2022/06/05 19:04:09;;;;;;;7.20;2.53;;;18.00;99.90;;;;;;20920387;28;20048;-76
2022/06/05 19:14:27;;;;;;;4.63;2.50;;;17.90;99.90;;;;;;20916981;28;20079;-76
2022/06/05 19:24:41;;;;;;;11.20;2.10;;;17.80;99.90;;;;;;20913517;28;20028;-77
2022/06/05 19:34:52;;;;;;;8.05;3.55;;;17.80;99.90;;;;;;20904493;28;20395;-76
2022/06/05 19:45:33;;;;;;;5.85;3.03;;;17.60;99.90;;;;;;20896632;28;20037;-75
2022/06/05 19:55:36;;;;;;;10.30;3.50;;;17.60;99.90;;;;;;20894778;28;20025;-75
2022/06/05 20:05:41;;;;;;;4.13;2.83;;;17.20;99.90;;;;;;20895554;28;20048;-77
2022/06/05 20:15:43;;;;;;;4.95;2.65;;;16.80;99.90;;;;;;20896350;28;20051;-76
2022/06/05 20:25:44;;;;;;;5.60;3.17;;;16.50;99.90;;;;;;20916953;28;20025;-77
2022/06/05 20:36:15;;;;;;;14.00;5.53;;;16.00;99.90;;;;;;20927733;28;20033;-75
2022/06/05 20:46:23;;;;;;;10.13;4.22;;;15.20;99.90;;;;;;20839487;23;20144;-78
2022/06/05 20:56:32;;;;;;;8.07;4.72;;;15.30;99.90;;;;;;20885568;28;20036;-74
2022/06/05 21:16:57;;;;;;;4.43;3.58;;;15.20;99.90;;;;;;20857133;28;20025;-76
2022/06/05 21:27:20;;;;;;;13.98;3.92;;;15.30;99.90;;;;;;20883774;28;20116;-76
2022/06/05 21:37:25;;;;;;;5.88;4.03;;;15.50;99.90;;;;;;20879295;28;20557;-75
2022/06/05 21:47:27;;;;;;;6.22;3.95;;;14.80;99.90;;;;;;20886328;28;20503;-75
2022/06/05 21:57:33;;;;;;;8.07;4.10;;;15.00;99.90;;;;;;20871300;28;20025;-75
2022/06/05 22:07:34;;;;;;;9.48;4.10;;;14.90;99.90;;;;;;20857914;28;20036;-74
2022/06/05 22:17:35;;;;;;;13.53;4.10;;;15.00;99.90;;;;;;20868034;28;20116;-75
2022/06/05 22:27:36;;;;;;;7.70;4.23;;;14.80;99.90;;;;;;20858129;28;20120;-75
2022/06/05 22:37:37;;;;;;;13.33;3.77;;;14.90;99.90;;;;;;20867869;28;20126;-75
2022/06/05 22:47:38;;;;;;;8.30;3.50;;;15.10;99.90;;;;;;20893148;28;20040;-75
2022/06/05 22:57:39;;;;;;;8.17;3.90;;;15.20;99.90;;;;;;20937751;28;20754;-75
2022/06/05 23:07:40;;;;;;;7.10;4.17;;;15.10;99.90;;;;;;20903598;28;20450;-75
2022/06/05 23:17:41;;;;;;;13.15;5.68;;;14.40;99.90;;;;;;20893739;28;20040;-76
2022/06/05 23:27:42;;;;;;;6.43;4.43;;;14.10;99.90;;;;;;20873572;28;20060;-74
2022/06/05 23:37:43;;;;;;;7.30;4.40;;;14.40;99.90;;;;;;20861322;28;20079;-75
2022/06/05 23:47:44;;;;;;;6.73;4.80;;;14.00;99.90;;;;;;20911907;28;20025;-74
2022/06/05 23:57:44;;;;;;;6.33;3.80;;;13.90;99.90;;;;;;20917730;28;20483;-75
